PDT,Max TemperatureF,Mean TemperatureF,Min TemperatureF,Max Dew PointF,MeanDew PointF,Min DewpointF,Max Humidity, Mean Humidity, Min Humidity, Max Sea Level PressureIn, Mean Sea Level PressureIn, Min Sea Level PressureIn, Max VisibilityMiles, Mean VisibilityMiles, Min VisibilityMiles, Max Wind SpeedMPH, Mean Wind SpeedMPH, Max Gust SpeedMPH,PrecipitationIn, CloudCover, Events, WindDirDegrees
2013-3-1,84,69,53,25,19,13,24,16,7,30.35,30.27,30.18,10,10,10,14,7,15,0.00,0,,292
2013-3-2,84,70,55,33,27,24,32,22,11,30.23,30.14,30.03,10,10,10,12,6,15,0.00,1,,3
2013-3-3,84,72,59,36,31,26,32,23,13,30.02,29.90,29.79,10,10,10,21,5,25,0.00,3,,59
2013-3-4,80,68,56,45,41,36,57,40,23,30.02,29.95,29.86,10,10,10,21,5,26,0.00,0,,315
2013-3-5,79,68,56,45,41,37,67,45,23,30.04,29.97,29.90,10,10,10,12,4,16,0.00,0,,358
2013-3-6,76,65,53,43,37,32,59,40,21,30.01,29.92,29.86,10,10,10,29,9,37,0.00,0,,336
2013-3-7,68,59,50,43,40,37,68,54,40,29.92,29.87,29.82,10,10,10,22,5,26,0.00,3,,293
2013-3-8,63,56,49,45,37,30,77,55,32,29.94,29.82,29.75,10,10,10,29,7,36,0.04,4,Rain,351
2013-3-9,70,58,45,42,38,35,76,52,28,30.13,30.03,29.94,10,10,10,18,5,30,0.00,1,,334
2013-3-10,80,65,50,42,22,9,71,39,6,30.24,30.17,30.09,10,10,10,23,6,30,0.00,0,,13
2013-3-11,85,68,50,34,22,12,38,23,7,30.17,30.08,29.97,10,10,10,12,5,16,0.00,0,,3
2013-3-12,90,73,56,35,28,18,40,24,8,30.06,30.02,29.95,10,10,10,12,5,14,0.00,0,,349
2013-3-13,95,77,59,35,29,20,35,21,7,30.10,30.04,29.96,10,10,10,13,5,18,0.00,0,,331
2013-3-14,97,80,63,41,32,26,31,20,8,30.06,29.99,29.91,10,10,10,14,6,17,0.00,0,,11
2013-3-15,95,79,63,45,36,30,48,30,11,29.96,29.87,29.79,10,10,10,18,4,23,0.00,1,,34
2013-3-16,94,79,64,42,33,21,35,22,8,29.80,29.75,29.69,10,10,10,25,7,31,0.00,0,,304
2013-3-17,90,75,60,46,39,22,51,30,9,29.88,29.80,29.72,10,10,10,23,7,30,0.00,0,,281
2013-3-18,89,74,58,47,42,23,62,36,9,29.93,29.87,29.81,10,10,10,18,5,24,0.00,1,,298
2013-3-19,87,74,60,48,44,39,64,41,18,29.98,29.92,29.87,10,9,7,24,8,30,0.00,1,,312
2013-3-20,88,75,62,48,42,31,52,33,13,29.96,29.89,29.80,10,10,9,28,8,38,0.00,1,,293
2013-3-21,89,76,62,48,42,29,60,36,12,29.80,29.73,29.65,10,10,10,25,8,32,0.00,1,,316
2013-3-22,89,74,59,46,36,13,60,33,6,29.78,29.71,29.64,10,10,10,24,6,36,0.00,0,,311
2013-3-23,82,73,63,41,16,2,40,23,5,29.99,29.90,29.78,10,10,10,17,9,22,0.00,0,,303
2013-3-24,83,68,53,33,19,9,46,27,7,30.00,29.93,29.84,10,10,10,9,4,,0.00,0,,356
2013-3-25,85,71,57,37,24,15,39,24,8,29.94,29.89,29.82,10,10,10,13,6,17,0.00,1,,21
2013-3-26,89,75,61,40,30,20,40,24,8,29.85,29.80,29.73,10,10,10,10,3,17,0.00,2,,206
2013-3-27,87,73,59,45,37,30,46,31,16,29.88,29.83,29.78,10,10,10,22,4,36,0.00,1,,28
2013-3-28,86,72,58,47,39,31,62,39,15,29.99,29.93,29.88,10,10,10,12,3,17,0.00,1,,118
2013-3-29,87,74,61,48,41,36,48,32,16,30.03,29.99,29.94,10,10,10,15,4,20,0.00,1,,105
2013-3-30,91,80,69,48,43,36,47,32,16,29.99,29.94,29.88,10,10,10,20,7,24,0.00,0,,307
2013-3-31,85,74,63,43,39,36,44,31,18,29.97,29.92,29.87,10,10,10,23,9,29,0.00,0,,304